Flight Track Log - Related Links

Times and Time Zones

All times are in EDT time to prevent confusion due to time zone crossing. See the RPA956 flight status page for this flight to view local times or setup timezone preferences in your user account.

Time Position Orientation Groundspeed Altitude Reporting Facility
EDT Latitude Longitude Course Direction KTS MPH feet Rate Location/Type
Mon 02:43:18 PM 37.6669 -97.4183 332° Northwest 153 176 2,100  Level Kansas City Center
Mon 02:43:48 PM 37.6833 -97.4294 288° West 174 200 2,700 1,714 Climbing Kansas City Center
Mon 02:44:49 PM 37.7025 -97.5036 275° West 214 246 4,700 1,832 Climbing Kansas City Center
Mon 02:45:23 PM 37.7056 -97.5483 275° West 232 267 5,600 1,851 Climbing Kansas City Center
Mon 02:46:23 PM 37.7117 -97.6300 275° West 237 273 7,600 2,100 Climbing Kansas City Center
Mon 02:47:23 PM 37.7178 -97.7142 275° West 237 273 9,800 2,150 Climbing Kansas City Center
Mon 02:48:23 PM 37.7239 -97.7958 276° West 237 273 11,900 2,050 Climbing Kansas City Center
Mon 02:49:23 PM 37.7300 -97.8750 278° West 237 273 13,900 1,900 Climbing Kansas City Center
Mon 02:50:23 PM 37.7383 -97.9514 273° West 232 267 15,700 1,500 Climbing Kansas City Center
Mon 02:51:23 PM 37.7408 -98.0094 276° West 226 260 16,900 1,150 Climbing Kansas City Center
Mon 02:52:23 PM 37.7469 -98.0858 276° West 215 247 18,000 1,050 Climbing Kansas City Center
Mon 02:53:23 PM 37.7531 -98.1569 276° West 207 238 19,000 900 Climbing Kansas City Center
Mon 02:54:23 PM 37.7592 -98.2336 275° West 217 250 19,800 900 Climbing Kansas City Center
Mon 02:55:23 PM 37.7647 -98.3153 277° West 227 261 20,800 950 Climbing Kansas City Center
Mon 02:56:23 PM 37.7725 -98.3997 275° West 237 273 21,700 950 Climbing Kansas City Center
Mon 02:57:23 PM 37.7783 -98.4789 276° West 237 273 22,700 900 Climbing Kansas City Center
Mon 02:58:23 PM 37.7858 -98.5633 273° West 237 273 23,500 650 Climbing Kansas City Center
Mon 02:59:23 PM 37.7894 -98.6422 276° West 237 273 24,000 250 Climbing Kansas City Center
Mon 03:00:23 PM 37.7967 -98.7294 275° West 237 273 24,000  Level Kansas City Center
Mon 03:01:23 PM 37.8036 -98.8272 275° West 259 298 24,000  Level Kansas City Center
Mon 03:02:23 PM 37.8106 -98.9275 274° West 280 322 24,000  Level Kansas City Center
Mon 03:03:23 PM 37.8169 -99.0331 276° West 293 337 24,000  Level Kansas City Center
Mon 03:04:23 PM 37.8253 -99.1414 274° West 303 349 24,000  Level Kansas City Center
Mon 03:05:23 PM 37.8314 -99.2494 275° West 309 356 24,000  Level Kansas City Center
Mon 03:06:23 PM 37.8394 -99.3606 275° West 314 361 24,000  Level Kansas City Center
Mon 03:07:23 PM 37.8475 -99.4742 284° West 314 361 24,000  Level Kansas City Center
Mon 03:08:23 PM 37.8697 -99.5886 287° West 308 354 24,000  Level Kansas City Center
Mon 03:09:23 PM 37.8925 -99.6850 288° West 320 368 24,000  Level Kansas City Center
Mon 03:10:23 PM 37.9192 -99.7922 288° West 326 375 24,000  Level Kansas City Center
Mon 03:11:23 PM 37.9494 -99.9103 287° West 326 375 24,000  Level Kansas City Center
Mon 03:12:23 PM 37.9756 -100.0200 288° West 326 375 24,000  Level Kansas City Center
Mon 03:13:23 PM 38.0003 -100.1169 288° West 326 375 24,000  Level Kansas City Center
Mon 03:14:23 PM 38.0303 -100.2350 287° West 326 375 24,000  Level Kansas City Center
Mon 03:15:23 PM 38.0564 -100.3425 289° West 326 375 24,000  Level Kansas City Center
Mon 03:16:23 PM 38.0844 -100.4478 286° West 326 375 24,000  Level Kansas City Center
Mon 03:17:23 PM 38.1067 -100.5444 283° West 326 375 24,000  Level Kansas City Center
Mon 03:18:23 PM 38.1278 -100.6625 283° West 326 375 24,000  Level Kansas City Center
Mon 03:19:23 PM 38.1472 -100.7722 285° West 319 367 24,000  Level Kansas City Center
Mon 03:20:23 PM 38.1669 -100.8692 283° West 319 367 24,000  Level Kansas City Center
Mon 03:22:13 PM 38.2028 -101.0756 283° West 304 350 24,000  Level Denver Center
Mon 03:23:13 PM 38.2225 -101.1853 284° West 316 364 24,000  Level Denver Center
Mon 03:24:13 PM 38.2417 -101.2842 283° West 316 364 24,000  Level Denver Center
Mon 03:25:13 PM 38.2636 -101.4042 283° West 322 371 24,000  Level Denver Center
Mon 03:26:13 PM 38.2831 -101.5139 283° West 322 371 24,000  Level Denver Center
Mon 03:27:13 PM 38.3025 -101.6239 288° West 322 371 24,000  Level Denver Center
Mon 03:28:13 PM 38.3275 -101.7228 304° West 322 371 24,000  Level Denver Center
Mon 03:29:13 PM 38.3819 -101.8275 303° West 325 374 24,000  Level Denver Center
Mon 03:30:13 PM 38.4317 -101.9250 301° West 330 380 24,000  Level Denver Center
Mon 03:31:13 PM 38.4747 -102.0153 303° West 330 380 24,000  Level Denver Center
Mon 03:32:13 PM 38.5247 -102.1156 302° West 330 380 24,000  Level Denver Center
Mon 03:33:13 PM 38.5786 -102.2239 303° West 330 380 24,000  Level Denver Center
Mon 03:34:13 PM 38.6281 -102.3219 300° West 330 380 24,000  Level Denver Center
Mon 03:35:13 PM 38.6714 -102.4178 304° West 330 380 24,000  Level Denver Center
Mon 03:36:13 PM 38.7225 -102.5133 301° West 330 380 24,000  Level Denver Center
Mon 03:37:13 PM 38.7744 -102.6247 301° West 330 380 24,000  Level Denver Center
Mon 03:38:13 PM 38.8214 -102.7261 302° West 330 380 24,000  Level Denver Center
Mon 03:39:13 PM 38.8706 -102.8275 302° West 330 380 24,000  Level Denver Center
Mon 03:42:13 PM 39.0131 -103.1222 303° West 330 380 24,000  Level Denver Center
Mon 03:43:13 PM 39.0639 -103.2239 300° West 330 380 24,000  Level Denver Center
Mon 03:44:13 PM 39.1106 -103.3261 302° West 330 380 24,000 -1,050 Level Denver Center
Mon 03:47:13 PM 39.2564 -103.6333 300° West 330 380 19,800 -1,277 Descending Denver Center
Mon 03:52:03 PM 39.4667 -104.1000 303° West 271 312 14,000 -967 Descending Denver TRACON
Mon 03:53:13 PM 39.5150 -104.1961 299° West 278 320 14,000  Level Denver Center
Mon 03:54:13 PM 39.5542 -104.2892 298° West 285 328 14,000 -450 Level Denver Center
Mon 03:55:13 PM 39.5936 -104.3847 298° West 291 335 13,100 -500 Descending Denver Center
Mon 03:56:13 PM 39.6350 -104.4861 299° West 303 349 13,000 -49 Descending Denver Center
Mon 03:57:15 PM 39.6833 -104.6000 297° West 308 354 13,000 -569 Level Denver TRACON
Mon 03:58:09 PM 39.7167 -104.6833 298° West 307 353 11,900 -1,053 Descending Denver TRACON
Mon 03:59:09 PM 39.7500 -104.7667 343° North 299 344 11,000 -450 Descending Denver TRACON
Mon 04:00:09 PM 39.8333 -104.8000 360° North 279 321 11,000  Level Denver TRACON
Mon 04:01:09 PM 39.9000 -104.8000 351° North 266 306 11,000  Level Denver TRACON
Mon 04:02:15 PM 39.9833 -104.8167 360° North 258 297 11,000 -238 Level Denver TRACON
Mon 04:03:15 PM 40.0500 -104.8167 360° North 259 298 10,500 -500 Descending Denver TRACON
Mon 04:04:15 PM 40.1167 -104.8167 360° North 261 300 10,000 -263 Descending Denver TRACON
Mon 04:05:09 PM 40.1833 -104.8167 21° North 255 293 10,000  Level Denver TRACON
Mon 04:06:09 PM 40.2500 -104.7833 105° East 252 290 10,000  Level Denver TRACON
Mon 04:07:09 PM 40.2333 -104.7000 166° South 220 253 10,000  Level Denver TRACON
Mon 04:08:09 PM 40.1833 -104.6833 180° South 201 231 10,000 -50 Level Denver TRACON
Mon 04:09:09 PM 40.1333 -104.6833 180° South 181 208 9,900 -500 Descending Denver TRACON
Mon 04:10:09 PM 40.0833 -104.6833 180° South 184 212 9,000 -950 Descending Denver TRACON
Mon 04:11:09 PM 40.0333 -104.6833 180° South 183 211 8,000 -1,000 Descending Denver TRACON

Login

Don't have an account? Register now (free) for customized features, flight alerts, and more!